createdAt,value
2018-08-30T06:17:20.331Z,15.77
2018-08-30T06:19:53.890Z,14.43
2018-08-30T06:22:22.107Z,14.63
2018-08-30T06:24:50.067Z,14.80
2018-08-30T06:27:18.030Z,14.23
2018-08-30T06:29:45.989Z,15.90
2018-08-30T06:32:13.855Z,15.10
2018-08-30T06:34:41.792Z,16.50
2018-08-30T06:37:09.763Z,16.07
2018-08-30T06:39:37.651Z,12.83
2018-08-30T06:42:05.651Z,15.80
2018-08-30T06:44:33.531Z,15.63
2018-08-30T06:47:01.435Z,14.33
2018-08-30T06:49:29.380Z,12.60
2018-08-30T06:51:57.303Z,13.47
2018-08-30T06:54:25.256Z,17.27
2018-08-30T06:56:53.430Z,14.73
2018-08-30T06:59:21.355Z,13.00
2018-08-30T07:01:49.270Z,13.80
2018-08-30T07:04:17.309Z,17.53
2018-08-30T07:06:45.136Z,14.83
2018-08-30T07:09:13.368Z,15.70
2018-08-30T07:11:42.484Z,15.87
2018-08-30T07:14:10.740Z,17.00
2018-08-30T07:16:39.820Z,18.43
2018-08-30T07:19:07.684Z,16.77
2018-08-30T07:21:38.942Z,14.63
2018-08-30T07:24:06.817Z,18.93
2018-08-30T07:26:34.733Z,17.80
2018-08-30T07:29:03.286Z,17.57
2018-08-30T07:31:31.179Z,17.20
2018-08-30T07:33:59.127Z,16.87
2018-08-30T07:36:28.786Z,18.33
2018-08-30T07:38:56.875Z,16.97
2018-08-30T07:41:27.053Z,17.47
2018-08-30T07:43:55.108Z,16.03
2018-08-30T07:46:23.375Z,18.73
2018-08-30T07:48:51.226Z,18.03
2018-08-30T07:51:19.108Z,16.50
2018-08-30T07:53:47.051Z,16.17
2018-08-30T07:56:15.434Z,19.40
2018-08-30T07:58:43.290Z,20.03
2018-08-30T08:01:11.166Z,20.70
2018-08-30T08:03:39.291Z,17.70
2018-08-30T08:06:07.368Z,21.60
2018-08-30T08:08:35.125Z,18.43
2018-08-30T08:11:03.253Z,21.20
2018-08-30T08:13:31.099Z,20.60
2018-08-30T08:15:59.024Z,18.67
2018-08-30T08:18:27.056Z,18.97
2018-08-30T08:20:54.907Z,18.00
2018-08-30T08:23:22.791Z,18.60
2018-08-30T08:25:51.039Z,20.33
2018-08-30T08:28:18.942Z,19.27
2018-08-30T08:30:46.895Z,19.23
2018-08-30T08:33:15.075Z,19.23
2018-08-30T08:35:42.935Z,19.27
2018-08-30T08:38:10.805Z,16.57
2018-08-30T08:40:38.711Z,17.00
2018-08-30T08:43:06.683Z,15.40
2018-08-30T08:45:34.574Z,14.70
2018-08-30T08:48:02.524Z,12.83
2018-08-30T08:50:30.455Z,14.83
2018-08-30T08:52:58.322Z,15.33
2018-08-30T08:55:26.329Z,18.03
2018-08-30T08:57:54.187Z,13.40
2018-08-30T09:00:22.214Z,14.83
2018-08-30T09:02:50.114Z,13.70
2018-08-30T09:05:18.062Z,14.57
2018-08-30T09:07:46.128Z,13.77
2018-08-30T09:10:14.027Z,12.17
2018-08-30T09:12:42.168Z,14.73
2018-08-30T09:15:10.311Z,16.23
2018-08-30T09:17:38.191Z,13.20
2018-08-30T09:20:06.600Z,16.83
2018-08-30T09:22:34.523Z,14.50
2018-08-30T09:25:02.427Z,14.43
2018-08-30T09:27:30.420Z,15.07
2018-08-30T09:29:59.206Z,16.13
2018-08-30T09:32:27.299Z,15.07
2018-08-30T09:34:55.283Z,14.63
2018-08-30T09:37:23.169Z,15.87
2018-08-30T09:39:51.031Z,15.53
2018-08-30T09:42:18.953Z,14.43
2018-08-30T09:44:46.812Z,13.53
2018-08-30T09:47:15.778Z,15.90
2018-08-30T09:49:43.716Z,16.37
2018-08-30T09:52:16.486Z,30.90
2018-08-30T09:54:45.740Z,20.30
2018-08-30T09:57:14.021Z,16.87
2018-08-30T09:59:41.790Z,22.10
2018-08-30T10:02:15.267Z,16.47
2018-08-30T10:04:43.213Z,15.00
2018-08-30T10:07:11.016Z,12.90
2018-08-30T10:09:38.883Z,14.77
2018-08-30T10:12:06.751Z,12.67
2018-08-30T10:14:34.607Z,15.73
2018-08-30T10:17:02.508Z,14.23
2018-08-30T10:19:30.695Z,13.83
2018-08-30T10:21:58.555Z,14.27
2018-08-30T10:24:26.423Z,13.83
2018-08-30T10:26:54.303Z,15.83
2018-08-30T10:29:22.219Z,13.17
2018-08-30T10:31:50.128Z,12.63
2018-08-30T10:34:17.983Z,14.00
2018-08-30T10:36:45.877Z,13.30
2018-08-30T10:39:13.740Z,13.40
2018-08-30T10:41:41.614Z,14.40
2018-08-30T10:44:09.493Z,11.70
2018-08-30T10:46:37.357Z,14.07
2018-08-30T10:49:05.226Z,13.13
2018-08-30T10:51:33.663Z,11.10
2018-08-30T10:54:01.799Z,11.07
2018-08-30T10:56:31.156Z,9.80
2018-08-30T10:58:59.111Z,12.33
2018-08-30T11:01:27.031Z,10.47
2018-08-30T11:03:54.908Z,10.97
2018-08-30T11:06:22.755Z,10.77
2018-08-30T11:08:50.655Z,10.33
2018-08-30T11:11:18.519Z,9.67
2018-08-30T11:13:46.748Z,7.40
2018-08-30T11:16:14.615Z,9.43
2018-08-30T11:18:42.506Z,13.80
2018-08-30T11:21:10.403Z,8.60
2018-08-30T11:23:38.751Z,9.63
2018-08-30T11:26:06.614Z,9.03
2018-08-30T11:28:34.464Z,8.47
2018-08-30T11:31:02.595Z,9.37
2018-08-30T11:33:30.460Z,10.10
2018-08-30T11:35:58.452Z,9.50
2018-08-30T11:38:26.323Z,10.57
2018-08-30T11:40:54.180Z,9.10
2018-08-30T11:43:22.183Z,8.40
2018-08-30T11:45:49.994Z,8.57
2018-08-30T11:48:17.854Z,9.47
2018-08-30T11:50:45.715Z,9.10
2018-08-30T11:53:13.576Z,8.30
2018-08-30T11:55:41.642Z,7.80
2018-08-30T11:58:09.499Z,7.83
2018-08-30T12:00:37.547Z,8.43
2018-08-30T12:03:05.474Z,9.70
2018-08-30T12:05:33.335Z,10.47
2018-08-30T12:08:01.236Z,7.53
2018-08-30T12:10:29.821Z,7.60
2018-08-30T12:12:57.838Z,7.87
2018-08-30T12:15:25.946Z,8.97
2018-08-30T12:17:53.807Z,7.87
2018-08-30T12:20:21.717Z,9.03
2018-08-30T12:22:50.438Z,6.73
2018-08-30T12:25:18.308Z,7.43
2018-08-30T12:27:46.178Z,6.13
2018-08-30T12:30:14.211Z,7.27
2018-08-30T12:32:42.145Z,8.50
2018-08-30T12:35:10.044Z,6.67
2018-08-30T12:37:37.877Z,8.97
2018-08-30T12:40:05.833Z,7.53
2018-08-30T12:42:33.653Z,7.00
2018-08-30T12:45:01.471Z,9.00
2018-08-30T12:47:29.325Z,8.50
2018-08-30T12:49:57.209Z,7.03
2018-08-30T12:52:25.172Z,8.50
2018-08-30T12:54:53.004Z,9.00
2018-08-30T12:57:21.311Z,7.03
2018-08-30T12:59:49.476Z,8.43
2018-08-30T13:02:17.600Z,6.30
2018-08-30T13:04:45.744Z,7.70
2018-08-30T13:07:13.773Z,7.87
2018-08-30T13:09:41.998Z,8.13
2018-08-30T13:12:10.075Z,7.43
2018-08-30T13:14:38.127Z,11.20
2018-08-30T13:17:06.043Z,5.97
2018-08-30T13:19:34.536Z,5.77
2018-08-30T13:22:02.709Z,5.57
2018-08-30T13:24:30.702Z,7.00
2018-08-30T13:26:58.734Z,9.83
2018-08-30T13:29:27.446Z,7.50
2018-08-30T13:31:55.395Z,6.63
2018-08-30T13:34:23.742Z,7.17
2018-08-30T13:36:51.908Z,6.10
2018-08-30T13:39:19.946Z,6.50
2018-08-30T13:41:47.991Z,5.73
2018-08-30T13:44:15.917Z,5.93
2018-08-30T13:46:44.338Z,6.47
2018-08-30T13:49:12.255Z,6.90
2018-08-30T13:51:40.556Z,6.07
2018-08-30T13:54:08.929Z,6.30
2018-08-30T13:56:37.924Z,6.17
2018-08-30T13:59:06.034Z,7.30
2018-08-30T14:01:34.256Z,5.80
2018-08-30T14:04:02.142Z,8.07
2018-08-30T14:06:30.163Z,7.00
2018-08-30T14:08:58.109Z,4.63
2018-08-30T14:11:29.537Z,6.33
2018-08-30T14:13:57.577Z,5.43
2018-08-30T14:16:25.444Z,4.03
2018-08-30T14:18:53.533Z,5.40
2018-08-30T14:21:21.695Z,7.23
2018-08-30T14:23:49.757Z,5.83
2018-08-30T14:26:17.849Z,6.17
2018-08-30T14:28:45.952Z,7.50
2018-08-30T14:31:14.071Z,5.57
2018-08-30T14:33:42.408Z,8.70
2018-08-30T14:36:10.783Z,6.17
2018-08-30T14:38:39.216Z,5.93
2018-08-30T14:41:07.384Z,9.33
2018-08-30T14:43:35.370Z,6.77
2018-08-30T14:46:03.760Z,4.17
2018-08-30T14:48:31.799Z,8.13
2018-08-30T14:50:59.896Z,6.23
2018-08-30T14:53:28.232Z,6.73
2018-08-30T14:55:56.588Z,5.67
2018-08-30T14:58:24.684Z,7.43
2018-08-30T15:00:52.852Z,7.20
2018-08-30T15:03:21.048Z,7.03
2018-08-30T15:05:49.243Z,5.93
2018-08-30T15:08:17.269Z,7.50
2018-08-30T15:10:45.372Z,7.83
2018-08-30T15:13:13.663Z,7.77
2018-08-30T15:15:41.751Z,6.97
2018-08-30T15:18:09.870Z,6.53
2018-08-30T15:20:37.965Z,6.87
2018-08-30T15:23:06.237Z,6.00
2018-08-30T15:25:34.228Z,7.30
2018-08-30T15:28:02.320Z,6.40
2018-08-30T15:30:30.411Z,6.13
2018-08-30T15:33:05.471Z,4.30
2018-08-30T15:35:35.183Z,5.33
2018-08-30T15:38:03.299Z,6.13
2018-08-30T15:40:32.496Z,3.20
2018-08-30T15:43:00.588Z,4.50
2018-08-30T15:45:28.689Z,3.80
2018-08-30T15:47:56.946Z,4.57
2018-08-30T15:50:25.040Z,7.10
2018-08-30T15:52:53.140Z,5.33
2018-08-30T15:55:21.236Z,4.37
2018-08-30T15:57:49.564Z,4.43
2018-08-30T16:00:17.759Z,5.77
2018-08-30T16:02:46.363Z,3.87
2018-08-30T16:05:14.594Z,6.07
2018-08-30T16:07:43.258Z,4.07
2018-08-30T16:10:11.796Z,4.57
2018-08-30T16:12:39.916Z,7.77
2018-08-30T16:15:08.057Z,5.07
2018-08-30T16:17:36.160Z,2.60
2018-08-30T16:20:04.567Z,3.70
2018-08-30T16:23:17.038Z,4.50
2018-08-30T16:25:45.108Z,2.67
2018-08-30T16:28:13.270Z,4.93
2018-08-30T16:30:41.571Z,4.23
2018-08-30T16:33:09.451Z,5.60
2018-08-30T16:35:37.538Z,5.47
2018-08-30T16:38:05.708Z,5.07
2018-08-30T16:40:33.820Z,4.80
2018-08-30T16:43:01.912Z,6.80
2018-08-30T16:45:30.049Z,4.70
2018-08-30T16:47:58.182Z,5.23
2018-08-30T16:50:26.327Z,3.53
2018-08-30T16:52:54.392Z,5.07
2018-08-30T16:55:22.623Z,3.50
2018-08-30T16:57:50.712Z,4.53
2018-08-30T17:00:18.825Z,4.00
2018-08-30T17:02:46.923Z,3.87
2018-08-30T17:05:15.012Z,5.13
2018-08-30T17:07:43.138Z,5.97
2018-08-30T17:10:11.239Z,4.13
2018-08-30T17:12:39.332Z,5.13
2018-08-30T17:15:07.455Z,7.10
2018-08-30T17:17:35.597Z,5.80
2018-08-30T17:20:05.007Z,4.30
2018-08-30T17:22:32.875Z,4.33
2018-08-30T17:25:00.759Z,6.60
2018-08-30T17:27:28.611Z,4.50
2018-08-30T17:29:56.476Z,4.23
2018-08-30T17:32:24.354Z,5.03
2018-08-30T17:34:52.235Z,5.20
2018-08-30T17:37:20.210Z,3.47
2018-08-30T17:39:48.166Z,7.17
2018-08-30T17:42:16.079Z,7.87
2018-08-30T17:44:43.971Z,5.73
2018-08-30T17:47:12.131Z,3.03
2018-08-30T17:49:40.151Z,4.37
2018-08-30T17:52:08.103Z,4.70
2018-08-30T17:54:36.134Z,4.30
2018-08-30T17:57:04.167Z,6.33
2018-08-30T17:59:32.063Z,7.00
2018-08-30T18:02:00.047Z,4.70
2018-08-30T18:04:28.167Z,5.23
2018-08-30T18:06:56.346Z,4.80
2018-08-30T18:09:24.485Z,4.40
2018-08-30T18:11:52.647Z,6.23
2018-08-30T18:14:20.515Z,7.53
2018-08-30T18:16:48.612Z,6.07
2018-08-30T18:19:16.725Z,2.93
2018-08-30T18:21:44.840Z,4.17
2018-08-30T18:24:12.992Z,3.60
2018-08-30T18:26:41.108Z,4.03
2018-08-30T18:29:09.231Z,4.23
2018-08-30T18:31:37.416Z,3.87
2018-08-30T18:34:05.634Z,4.33
2018-08-30T18:36:33.731Z,4.33
2018-08-30T18:39:01.926Z,7.30
2018-08-30T18:41:31.822Z,2.23
2018-08-30T18:44:00.008Z,4.93
2018-08-30T18:46:28.205Z,7.27
2018-08-30T18:48:56.376Z,3.27
2018-08-30T18:51:26.919Z,4.97
2018-08-30T18:53:55.093Z,5.23
2018-08-30T18:56:23.197Z,5.07
2018-08-30T18:58:51.299Z,3.63
2018-08-30T19:01:19.556Z,3.97
2018-08-30T19:03:47.683Z,3.70
2018-08-30T19:06:15.843Z,7.03
2018-08-30T19:08:43.984Z,6.67
2018-08-30T19:11:12.191Z,7.20
2018-08-30T19:13:40.366Z,3.50
2018-08-30T19:16:13.889Z,4.63
2018-08-30T19:18:47.278Z,5.53
2018-08-30T19:21:15.559Z,6.23
2018-08-30T19:23:43.698Z,5.40
2018-08-30T19:26:11.881Z,4.07
2018-08-30T19:28:39.976Z,4.43
2018-08-30T19:31:08.335Z,3.50
2018-08-30T19:33:36.423Z,7.37
2018-08-30T19:36:09.966Z,3.30
2018-08-30T19:38:38.112Z,3.77
2018-08-30T19:41:11.556Z,5.93
2018-08-30T19:43:40.605Z,7.53
2018-08-30T19:46:08.692Z,7.67
2018-08-30T19:48:36.818Z,3.47
2018-08-30T19:51:05.170Z,5.77
2018-08-30T19:53:33.364Z,3.63
2018-08-30T19:56:01.479Z,2.97
2018-08-30T19:58:29.597Z,5.67
2018-08-30T20:00:57.676Z,4.27
2018-08-30T20:03:25.858Z,3.60
2018-08-30T20:05:54.066Z,2.70
2018-08-30T20:08:22.340Z,5.27
2018-08-30T20:10:50.433Z,6.77
2018-08-30T20:13:18.850Z,4.43
2018-08-30T20:15:46.744Z,4.17
2018-08-30T20:18:14.576Z,4.57
2018-08-30T20:20:42.471Z,2.83
2018-08-30T20:23:10.438Z,4.50
2018-08-30T20:25:38.339Z,4.70
2018-08-30T20:28:06.359Z,6.13
2018-08-30T20:30:34.258Z,4.40
2018-08-30T20:33:02.278Z,3.70
2018-08-30T20:35:30.165Z,7.90
2018-08-30T20:37:58.958Z,4.47
2018-08-30T20:40:27.074Z,3.27
2018-08-30T20:42:55.090Z,6.07
2018-08-30T20:45:23.039Z,4.50
2018-08-30T20:47:50.961Z,3.70
2018-08-30T20:50:18.914Z,4.80
2018-08-30T20:52:47.902Z,4.73
2018-08-30T20:55:15.788Z,6.37
2018-08-30T20:57:43.902Z,3.73
2018-08-30T21:00:11.832Z,4.43
2018-08-30T21:02:39.869Z,4.00
2018-08-30T21:05:07.902Z,4.07
2018-08-30T21:07:36.067Z,5.47
2018-08-30T21:10:03.990Z,4.37
2018-08-30T21:12:31.963Z,3.47
2018-08-30T21:14:59.967Z,5.83
2018-08-30T21:17:27.979Z,8.43
2018-08-30T21:19:55.840Z,5.20
2018-08-30T21:22:23.792Z,5.60
2018-08-30T21:24:51.710Z,7.00
2018-08-30T21:27:20.587Z,6.67
2018-08-30T21:29:48.467Z,7.30
2018-08-30T21:32:16.873Z,6.93
2018-08-30T21:34:44.759Z,4.13
2018-08-30T21:37:12.675Z,5.87
2018-08-30T21:39:40.636Z,4.77
2018-08-30T21:42:08.615Z,3.53
2018-08-30T21:44:36.520Z,5.00
2018-08-30T21:47:04.411Z,5.40
2018-08-30T21:49:32.342Z,3.30
2018-08-30T21:52:03.706Z,5.40
2018-08-30T21:54:31.634Z,5.47
2018-08-30T21:56:59.543Z,4.33
2018-08-30T21:59:27.402Z,4.90
2018-08-30T22:01:55.351Z,5.93
2018-08-30T22:04:23.223Z,6.30
2018-08-30T22:06:51.158Z,2.53
2018-08-30T22:09:19.027Z,2.63
2018-08-30T22:11:46.890Z,6.13
2018-08-30T22:14:14.763Z,4.67
2018-08-30T22:16:42.641Z,4.57
2018-08-30T22:19:10.507Z,6.17
2018-08-30T22:21:38.472Z,4.90
2018-08-30T22:24:06.332Z,3.30
2018-08-30T22:26:34.239Z,4.33
2018-08-30T22:29:02.163Z,3.20
2018-08-30T22:31:30.044Z,5.47
2018-08-30T22:33:58.011Z,7.10
2018-08-30T22:36:25.981Z,3.20
2018-08-30T22:38:53.854Z,4.70
2018-08-30T22:41:21.726Z,2.90
2018-08-30T22:43:49.591Z,3.70
2018-08-30T22:46:17.479Z,5.53
2018-08-30T22:48:45.349Z,4.53
2018-08-30T22:51:13.214Z,7.30
2018-08-30T22:53:41.129Z,4.90
2018-08-30T22:56:09.013Z,3.83
2018-08-30T22:58:36.891Z,4.10
2018-08-30T23:01:04.793Z,2.73
2018-08-30T23:03:33.589Z,3.93
2018-08-30T23:06:01.463Z,3.43
2018-08-30T23:08:29.319Z,3.97
2018-08-30T23:10:58.276Z,6.40
2018-08-30T23:13:26.239Z,6.30
2018-08-30T23:15:54.108Z,5.87
2018-08-30T23:18:22.088Z,4.43
2018-08-30T23:20:50.044Z,4.27
2018-08-30T23:23:18.033Z,6.30
2018-08-30T23:25:46.019Z,3.20
2018-08-30T23:28:13.882Z,5.13
2018-08-30T23:30:41.803Z,3.60
2018-08-30T23:33:09.710Z,6.03
2018-08-30T23:35:37.583Z,8.73
2018-08-30T23:38:05.882Z,5.10
2018-08-30T23:40:33.746Z,7.87
2018-08-30T23:43:01.663Z,3.40
2018-08-30T23:45:29.539Z,5.00
2018-08-30T23:47:57.486Z,3.70
2018-08-30T23:50:26.393Z,5.50
2018-08-30T23:52:55.295Z,7.43
2018-08-30T23:55:23.298Z,4.23
2018-08-30T23:58:02.703Z,4.17
